Hinckley, Illinois
Current Conditions -  °F | °C
As of 8:52 AM on Thursday 30 Oct 2014 (Local Time) from KARR Reporting Station
Few Clouds Few Clouds  
Wind Chill: 35°   Ceiling: Unl
Heat Index: 35°   Visibility: 7mi
Dew Point: 31°   Wind: 0mph
Humidity: 85%   Direction: NA
Pressure: 30.14"   Gusts: NA
Location:  41.77°N, 88.64°W
Report Text: KARR 301352Z 00000KT 7SM FEW120 02/M01 A3014 RMK AO2 SLP215 T00171006
Loading
Personal Weather Stations






























Interactive Weather Map
Tropical Storm Tracking
New forecast layout! Learn more

10-Day Weather Forecast

Advertisements
Track Severe Weather on mobile